sensor_id;sensor_type;location;lat;lon;timestamp;P1;durP1;ratioP1;P2;durP2;ratioP2
24030;SDS011;12240;51.142;22.486;2023-02-28T00:02:19;33.47;;;9.02;;
24030;SDS011;12240;51.142;22.486;2023-02-28T00:04:47;41.97;;;10.20;;
24030;SDS011;12240;51.142;22.486;2023-02-28T00:07:21;31.25;;;8.07;;
24030;SDS011;12240;51.142;22.486;2023-02-28T00:09:49;44.92;;;9.75;;
24030;SDS011;12240;51.142;22.486;2023-02-28T00:12:18;34.70;;;8.75;;
24030;SDS011;12240;51.142;22.486;2023-02-28T00:14:46;39.00;;;9.60;;
24030;SDS011;12240;51.142;22.486;2023-02-28T00:17:14;39.08;;;9.25;;
24030;SDS011;12240;51.142;22.486;2023-02-28T00:19:45;38.53;;;9.65;;
24030;SDS011;12240;51.142;22.486;2023-02-28T00:22:12;35.20;;;9.55;;
24030;SDS011;12240;51.142;22.486;2023-02-28T00:24:42;39.85;;;9.82;;
24030;SDS011;12240;51.142;22.486;2023-02-28T00:27:10;38.67;;;9.60;;
24030;SDS011;12240;51.142;22.486;2023-02-28T00:29:39;44.70;;;11.18;;
24030;SDS011;12240;51.142;22.486;2023-02-28T00:32:07;36.15;;;9.05;;
24030;SDS011;12240;51.142;22.486;2023-02-28T00:34:37;36.88;;;8.25;;
24030;SDS011;12240;51.142;22.486;2023-02-28T00:37:05;33.85;;;9.10;;
24030;SDS011;12240;51.142;22.486;2023-02-28T00:39:36;35.53;;;9.52;;
24030;SDS011;12240;51.142;22.486;2023-02-28T00:42:05;39.05;;;10.65;;
24030;SDS011;12240;51.142;22.486;2023-02-28T00:44:34;38.83;;;10.65;;
24030;SDS011;12240;51.142;22.486;2023-02-28T00:47:03;38.92;;;10.82;;
24030;SDS011;12240;51.142;22.486;2023-02-28T00:49:32;39.63;;;10.18;;
24030;SDS011;12240;51.142;22.486;2023-02-28T00:52:01;45.28;;;11.98;;
24030;SDS011;12240;51.142;22.486;2023-02-28T00:54:30;42.90;;;10.98;;
24030;SDS011;12240;51.142;22.486;2023-02-28T00:56:58;46.63;;;11.68;;
24030;SDS011;12240;51.142;22.486;2023-02-28T00:59:26;41.17;;;10.93;;
24030;SDS011;12240;51.142;22.486;2023-02-28T01:01:55;44.90;;;12.52;;
24030;SDS011;12240;51.142;22.486;2023-02-28T01:04:23;44.10;;;9.95;;
24030;SDS011;12240;51.142;22.486;2023-02-28T01:06:51;41.95;;;9.98;;
24030;SDS011;12240;51.142;22.486;2023-02-28T01:09:19;41.17;;;10.77;;
24030;SDS011;12240;51.142;22.486;2023-02-28T01:11:47;91.25;;;21.25;;
24030;SDS011;12240;51.142;22.486;2023-02-28T01:14:16;48.15;;;11.95;;
24030;SDS011;12240;51.142;22.486;2023-02-28T01:16:45;60.83;;;13.40;;
24030;SDS011;12240;51.142;22.486;2023-02-28T01:19:13;41.63;;;10.48;;
24030;SDS011;12240;51.142;22.486;2023-02-28T01:21:41;44.85;;;10.00;;
24030;SDS011;12240;51.142;22.486;2023-02-28T01:24:12;38.40;;;9.50;;
24030;SDS011;12240;51.142;22.486;2023-02-28T01:26:40;52.45;;;11.57;;
24030;SDS011;12240;51.142;22.486;2023-02-28T01:29:08;44.05;;;11.02;;
24030;SDS011;12240;51.142;22.486;2023-02-28T01:31:36;40.40;;;10.27;;
24030;SDS011;12240;51.142;22.486;2023-02-28T01:34:07;42.75;;;11.13;;
24030;SDS011;12240;51.142;22.486;2023-02-28T01:36:36;44.60;;;11.35;;
24030;SDS011;12240;51.142;22.486;2023-02-28T01:39:04;48.80;;;12.00;;
24030;SDS011;12240;51.142;22.486;2023-02-28T01:41:33;55.92;;;12.30;;
24030;SDS011;12240;51.142;22.486;2023-02-28T01:44:04;53.03;;;11.45;;
24030;SDS011;12240;51.142;22.486;2023-02-28T01:47:13;49.13;;;11.27;;
24030;SDS011;12240;51.142;22.486;2023-02-28T01:49:42;55.03;;;12.85;;
24030;SDS011;12240;51.142;22.486;2023-02-28T01:52:10;51.33;;;12.10;;
24030;SDS011;12240;51.142;22.486;2023-02-28T01:54:47;68.85;;;14.55;;
24030;SDS011;12240;51.142;22.486;2023-02-28T01:57:25;52.75;;;13.05;;
24030;SDS011;12240;51.142;22.486;2023-02-28T02:00:11;55.35;;;13.15;;
24030;SDS011;12240;51.142;22.486;2023-02-28T02:02:46;61.95;;;13.80;;
24030;SDS011;12240;51.142;22.486;2023-02-28T02:05:20;50.45;;;12.75;;
24030;SDS011;12240;51.142;22.486;2023-02-28T02:07:58;68.38;;;14.55;;
24030;SDS011;12240;51.142;22.486;2023-02-28T02:19:56;71.47;;;14.52;;
24030;SDS011;12240;51.142;22.486;2023-02-28T02:45:25;56.42;;;14.38;;
24030;SDS011;12240;51.142;22.486;2023-02-28T02:48:04;59.72;;;14.40;;
24030;SDS011;12240;51.142;22.486;2023-02-28T02:50:44;65.53;;;15.50;;
24030;SDS011;12240;51.142;22.486;2023-02-28T02:53:19;53.85;;;11.73;;
24030;SDS011;12240;51.142;22.486;2023-02-28T02:55:54;64.43;;;14.02;;
24030;SDS011;12240;51.142;22.486;2023-02-28T02:58:26;62.92;;;13.73;;
24030;SDS011;12240;51.142;22.486;2023-02-28T03:00:59;69.35;;;14.18;;
24030;SDS011;12240;51.142;22.486;2023-02-28T03:03:31;61.67;;;13.77;;
24030;SDS011;12240;51.142;22.486;2023-02-28T03:06:02;66.78;;;14.23;;
24030;SDS011;12240;51.142;22.486;2023-02-28T03:08:35;69.38;;;14.77;;
24030;SDS011;12240;51.142;22.486;2023-02-28T03:11:06;60.90;;;13.38;;
24030;SDS011;12240;51.142;22.486;2023-02-28T03:16:43;72.80;;;14.93;;
24030;SDS011;12240;51.142;22.486;2023-02-28T03:19:23;58.60;;;13.43;;
24030;SDS011;12240;51.142;22.486;2023-02-28T03:25:59;78.40;;;16.05;;
24030;SDS011;12240;51.142;22.486;2023-02-28T03:28:41;60.00;;;13.68;;
24030;SDS011;12240;51.142;22.486;2023-02-28T03:32:10;64.38;;;14.65;;
24030;SDS011;12240;51.142;22.486;2023-02-28T03:34:29;56.45;;;13.60;;
24030;SDS011;12240;51.142;22.486;2023-02-28T03:37:05;61.05;;;14.38;;
24030;SDS011;12240;51.142;22.486;2023-02-28T03:39:42;67.95;;;15.02;;
24030;SDS011;12240;51.142;22.486;2023-02-28T03:42:29;58.63;;;14.00;;
24030;SDS011;12240;51.142;22.486;2023-02-28T03:45:05;51.03;;;12.65;;
24030;SDS011;12240;51.142;22.486;2023-02-28T03:51:05;63.53;;;13.77;;
24030;SDS011;12240;51.142;22.486;2023-02-28T03:53:54;63.78;;;13.82;;
24030;SDS011;12240;51.142;22.486;2023-02-28T03:56:34;65.20;;;14.48;;
24030;SDS011;12240;51.142;22.486;2023-02-28T03:59:19;66.65;;;14.55;;
24030;SDS011;12240;51.142;22.486;2023-02-28T04:02:24;57.60;;;13.13;;
24030;SDS011;12240;51.142;22.486;2023-02-28T04:04:52;85.65;;;16.48;;
24030;SDS011;12240;51.142;22.486;2023-02-28T04:07:21;59.95;;;14.75;;
24030;SDS011;12240;51.142;22.486;2023-02-28T04:09:49;77.63;;;15.35;;
24030;SDS011;12240;51.142;22.486;2023-02-28T04:12:18;60.05;;;14.25;;
24030;SDS011;12240;51.142;22.486;2023-02-28T04:14:48;81.05;;;16.45;;
24030;SDS011;12240;51.142;22.486;2023-02-28T04:17:17;57.90;;;13.98;;
24030;SDS011;12240;51.142;22.486;2023-02-28T04:19:45;74.18;;;14.98;;
24030;SDS011;12240;51.142;22.486;2023-02-28T04:22:13;62.70;;;14.27;;
24030;SDS011;12240;51.142;22.486;2023-02-28T04:24:41;64.88;;;14.32;;
24030;SDS011;12240;51.142;22.486;2023-02-28T04:27:10;67.85;;;14.68;;
24030;SDS011;12240;51.142;22.486;2023-02-28T04:29:38;59.92;;;13.55;;
24030;SDS011;12240;51.142;22.486;2023-02-28T04:32:06;65.70;;;14.13;;
24030;SDS011;12240;51.142;22.486;2023-02-28T04:34:35;54.08;;;12.65;;
24030;SDS011;12240;51.142;22.486;2023-02-28T04:37:03;50.58;;;12.32;;
24030;SDS011;12240;51.142;22.486;2023-02-28T04:39:40;64.57;;;14.85;;
24030;SDS011;12240;51.142;22.486;2023-02-28T04:42:10;62.42;;;15.02;;
24030;SDS011;12240;51.142;22.486;2023-02-28T04:44:39;61.95;;;13.93;;
24030;SDS011;12240;51.142;22.486;2023-02-28T04:47:07;65.20;;;13.85;;
24030;SDS011;12240;51.142;22.486;2023-02-28T04:49:35;57.20;;;13.43;;
24030;SDS011;12240;51.142;22.486;2023-02-28T04:52:03;51.85;;;12.00;;
24030;SDS011;12240;51.142;22.486;2023-02-28T04:54:32;47.45;;;12.50;;
24030;SDS011;12240;51.142;22.486;2023-02-28T04:57:00;50.97;;;13.65;;
24030;SDS011;12240;51.142;22.486;2023-02-28T04:59:29;59.50;;;13.32;;
24030;SDS011;12240;51.142;22.486;2023-02-28T05:01:57;66.80;;;14.40;;
24030;SDS011;12240;51.142;22.486;2023-02-28T05:04:25;69.03;;;14.73;;
24030;SDS011;12240;51.142;22.486;2023-02-28T05:06:53;90.95;;;16.35;;
24030;SDS011;12240;51.142;22.486;2023-02-28T05:09:22;80.90;;;16.75;;
24030;SDS011;12240;51.142;22.486;2023-02-28T05:11:50;93.43;;;17.58;;
24030;SDS011;12240;51.142;22.486;2023-02-28T05:14:18;57.95;;;14.32;;
24030;SDS011;12240;51.142;22.486;2023-02-28T05:16:46;69.03;;;15.32;;
24030;SDS011;12240;51.142;22.486;2023-02-28T05:19:14;50.50;;;13.48;;
24030;SDS011;12240;51.142;22.486;2023-02-28T05:21:49;69.90;;;14.63;;
24030;SDS011;12240;51.142;22.486;2023-02-28T05:24:20;52.85;;;12.77;;
24030;SDS011;12240;51.142;22.486;2023-02-28T05:26:52;54.03;;;11.70;;
24030;SDS011;12240;51.142;22.486;2023-02-28T05:29:21;60.53;;;13.48;;
24030;SDS011;12240;51.142;22.486;2023-02-28T05:31:50;68.35;;;13.10;;
24030;SDS011;12240;51.142;22.486;2023-02-28T05:34:18;62.60;;;13.30;;
24030;SDS011;12240;51.142;22.486;2023-02-28T05:36:47;73.72;;;14.27;;
24030;SDS011;12240;51.142;22.486;2023-02-28T05:39:15;57.38;;;12.82;;
24030;SDS011;12240;51.142;22.486;2023-02-28T05:41:44;70.13;;;13.88;;
24030;SDS011;12240;51.142;22.486;2023-02-28T05:44:12;57.00;;;12.35;;
24030;SDS011;12240;51.142;22.486;2023-02-28T05:46:40;72.72;;;14.93;;
24030;SDS011;12240;51.142;22.486;2023-02-28T05:49:08;55.08;;;11.52;;
24030;SDS011;12240;51.142;22.486;2023-02-28T05:51:36;48.33;;;11.63;;
24030;SDS011;12240;51.142;22.486;2023-02-28T05:54:07;51.17;;;11.63;;
24030;SDS011;12240;51.142;22.486;2023-02-28T05:56:35;45.78;;;11.43;;
24030;SDS011;12240;51.142;22.486;2023-02-28T05:59:06;67.32;;;14.07;;
24030;SDS011;12240;51.142;22.486;2023-02-28T06:01:41;57.35;;;12.70;;
24030;SDS011;12240;51.142;22.486;2023-02-28T06:04:16;54.38;;;12.73;;
24030;SDS011;12240;51.142;22.486;2023-02-28T06:06:58;47.80;;;12.43;;
24030;SDS011;12240;51.142;22.486;2023-02-28T06:09:26;47.67;;;12.48;;
24030;SDS011;12240;51.142;22.486;2023-02-28T06:11:57;47.63;;;11.60;;
24030;SDS011;12240;51.142;22.486;2023-02-28T06:14:27;49.45;;;11.65;;
24030;SDS011;12240;51.142;22.486;2023-02-28T06:16:55;62.80;;;13.52;;
24030;SDS011;12240;51.142;22.486;2023-02-28T06:19:25;51.50;;;11.88;;
24030;SDS011;12240;51.142;22.486;2023-02-28T06:21:54;67.20;;;13.90;;
24030;SDS011;12240;51.142;22.486;2023-02-28T06:24:24;62.05;;;13.35;;
24030;SDS011;12240;51.142;22.486;2023-02-28T06:26:55;39.63;;;9.10;;
24030;SDS011;12240;51.142;22.486;2023-02-28T06:29:23;49.85;;;11.00;;
24030;SDS011;12240;51.142;22.486;2023-02-28T06:31:51;61.80;;;13.35;;
24030;SDS011;12240;51.142;22.486;2023-02-28T06:34:19;80.90;;;15.25;;
24030;SDS011;12240;51.142;22.486;2023-02-28T06:36:49;65.65;;;13.63;;
24030;SDS011;12240;51.142;22.486;2023-02-28T06:39:19;48.80;;;11.10;;
24030;SDS011;12240;51.142;22.486;2023-02-28T06:41:47;59.00;;;11.85;;
24030;SDS011;12240;51.142;22.486;2023-02-28T06:44:22;39.13;;;9.73;;
24030;SDS011;12240;51.142;22.486;2023-02-28T06:46:51;50.55;;;11.05;;
24030;SDS011;12240;51.142;22.486;2023-02-28T06:49:20;50.35;;;11.18;;
24030;SDS011;12240;51.142;22.486;2023-02-28T06:51:48;48.30;;;11.20;;
24030;SDS011;12240;51.142;22.486;2023-02-28T06:54:17;35.47;;;9.60;;
24030;SDS011;12240;51.142;22.486;2023-02-28T06:56:46;54.55;;;12.13;;
24030;SDS011;12240;51.142;22.486;2023-02-28T06:59:15;43.05;;;10.38;;
24030;SDS011;12240;51.142;22.486;2023-02-28T07:01:44;60.53;;;13.13;;
24030;SDS011;12240;51.142;22.486;2023-02-28T07:04:12;46.88;;;10.65;;
24030;SDS011;12240;51.142;22.486;2023-02-28T07:06:41;62.33;;;12.55;;
24030;SDS011;12240;51.142;22.486;2023-02-28T07:09:10;39.20;;;9.23;;
24030;SDS011;12240;51.142;22.486;2023-02-28T07:11:38;42.30;;;9.77;;
24030;SDS011;12240;51.142;22.486;2023-02-28T07:14:08;46.53;;;11.15;;
24030;SDS011;12240;51.142;22.486;2023-02-28T07:16:36;35.33;;;9.52;;
24030;SDS011;12240;51.142;22.486;2023-02-28T07:19:04;33.92;;;9.20;;
24030;SDS011;12240;51.142;22.486;2023-02-28T07:21:32;37.88;;;10.98;;
24030;SDS011;12240;51.142;22.486;2023-02-28T07:24:00;44.25;;;11.57;;
24030;SDS011;12240;51.142;22.486;2023-02-28T07:26:29;37.85;;;10.77;;
24030;SDS011;12240;51.142;22.486;2023-02-28T07:28:57;43.80;;;12.10;;
24030;SDS011;12240;51.142;22.486;2023-02-28T07:31:25;38.85;;;9.93;;
24030;SDS011;12240;51.142;22.486;2023-02-28T07:33:53;42.25;;;11.18;;
24030;SDS011;12240;51.142;22.486;2023-02-28T07:36:23;36.33;;;10.52;;
24030;SDS011;12240;51.142;22.486;2023-02-28T07:38:51;40.85;;;10.38;;
24030;SDS011;12240;51.142;22.486;2023-02-28T07:41:21;30.80;;;8.90;;
24030;SDS011;12240;51.142;22.486;2023-02-28T07:43:53;43.60;;;9.88;;
24030;SDS011;12240;51.142;22.486;2023-02-28T07:46:22;33.53;;;9.27;;
24030;SDS011;12240;51.142;22.486;2023-02-28T07:48:50;37.20;;;9.68;;
24030;SDS011;12240;51.142;22.486;2023-02-28T07:51:21;31.67;;;8.38;;
24030;SDS011;12240;51.142;22.486;2023-02-28T07:53:50;41.95;;;10.43;;
24030;SDS011;12240;51.142;22.486;2023-02-28T07:56:18;27.73;;;7.60;;
24030;SDS011;12240;51.142;22.486;2023-02-28T07:58:46;32.17;;;8.75;;
24030;SDS011;12240;51.142;22.486;2023-02-28T08:01:14;26.08;;;7.28;;
24030;SDS011;12240;51.142;22.486;2023-02-28T08:03:44;31.05;;;8.80;;
24030;SDS011;12240;51.142;22.486;2023-02-28T08:06:19;31.67;;;8.10;;
24030;SDS011;12240;51.142;22.486;2023-02-28T08:08:50;31.25;;;8.35;;
24030;SDS011;12240;51.142;22.486;2023-02-28T08:11:20;25.70;;;7.03;;
24030;SDS011;12240;51.142;22.486;2023-02-28T08:13:48;35.55;;;8.32;;
24030;SDS011;12240;51.142;22.486;2023-02-28T08:16:16;29.27;;;8.18;;
24030;SDS011;12240;51.142;22.486;2023-02-28T08:18:49;41.40;;;9.45;;
24030;SDS011;12240;51.142;22.486;2023-02-28T08:21:19;30.60;;;7.55;;
24030;SDS011;12240;51.142;22.486;2023-02-28T08:23:48;46.15;;;9.65;;
24030;SDS011;12240;51.142;22.486;2023-02-28T08:26:18;38.75;;;7.50;;
24030;SDS011;12240;51.142;22.486;2023-02-28T08:28:47;38.67;;;8.35;;
24030;SDS011;12240;51.142;22.486;2023-02-28T08:31:16;37.88;;;8.35;;
24030;SDS011;12240;51.142;22.486;2023-02-28T08:33:45;37.05;;;7.97;;
24030;SDS011;12240;51.142;22.486;2023-02-28T08:36:16;31.93;;;7.07;;
24030;SDS011;12240;51.142;22.486;2023-02-28T08:38:45;50.67;;;10.45;;
24030;SDS011;12240;51.142;22.486;2023-02-28T08:41:13;34.58;;;8.25;;
24030;SDS011;12240;51.142;22.486;2023-02-28T08:43:41;51.03;;;10.20;;
24030;SDS011;12240;51.142;22.486;2023-02-28T08:46:13;38.03;;;8.38;;
24030;SDS011;12240;51.142;22.486;2023-02-28T08:48:42;41.15;;;8.40;;
24030;SDS011;12240;51.142;22.486;2023-02-28T08:51:15;30.90;;;7.35;;
24030;SDS011;12240;51.142;22.486;2023-02-28T08:53:45;47.10;;;8.93;;
24030;SDS011;12240;51.142;22.486;2023-02-28T08:56:16;41.50;;;8.53;;
24030;SDS011;12240;51.142;22.486;2023-02-28T08:58:45;43.78;;;8.50;;
24030;SDS011;12240;51.142;22.486;2023-02-28T09:01:16;29.45;;;7.07;;
24030;SDS011;12240;51.142;22.486;2023-02-28T09:03:50;43.45;;;9.18;;
24030;SDS011;12240;51.142;22.486;2023-02-28T09:06:20;28.25;;;7.00;;
24030;SDS011;12240;51.142;22.486;2023-02-28T09:08:51;35.88;;;7.93;;
24030;SDS011;12240;51.142;22.486;2023-02-28T09:11:19;29.35;;;7.60;;
24030;SDS011;12240;51.142;22.486;2023-02-28T09:13:48;31.58;;;7.47;;
24030;SDS011;12240;51.142;22.486;2023-02-28T09:16:16;26.30;;;6.95;;
24030;SDS011;12240;51.142;22.486;2023-02-28T09:18:45;35.95;;;7.80;;
24030;SDS011;12240;51.142;22.486;2023-02-28T09:21:15;29.05;;;7.05;;
24030;SDS011;12240;51.142;22.486;2023-02-28T09:23:45;33.92;;;7.95;;
24030;SDS011;12240;51.142;22.486;2023-02-28T09:26:17;26.95;;;6.97;;
24030;SDS011;12240;51.142;22.486;2023-02-28T09:28:49;33.75;;;7.78;;
24030;SDS011;12240;51.142;22.486;2023-02-28T09:31:23;26.55;;;6.57;;
24030;SDS011;12240;51.142;22.486;2023-02-28T09:33:55;27.45;;;6.45;;
24030;SDS011;12240;51.142;22.486;2023-02-28T09:36:25;29.10;;;6.95;;
24030;SDS011;12240;51.142;22.486;2023-02-28T09:39:10;31.85;;;6.97;;
24030;SDS011;12240;51.142;22.486;2023-02-28T09:41:41;37.28;;;8.68;;
24030;SDS011;12240;51.142;22.486;2023-02-28T09:44:29;25.48;;;6.38;;
24030;SDS011;12240;51.142;22.486;2023-02-28T09:47:08;28.40;;;7.05;;
24030;SDS011;12240;51.142;22.486;2023-02-28T09:49:41;32.67;;;7.55;;
24030;SDS011;12240;51.142;22.486;2023-02-28T09:52:29;24.73;;;6.45;;
24030;SDS011;12240;51.142;22.486;2023-02-28T09:55:01;30.90;;;7.13;;
24030;SDS011;12240;51.142;22.486;2023-02-28T09:57:42;37.75;;;8.13;;
24030;SDS011;12240;51.142;22.486;2023-02-28T10:03:17;30.42;;;7.22;;
24030;SDS011;12240;51.142;22.486;2023-02-28T10:06:22;28.55;;;6.78;;
24030;SDS011;12240;51.142;22.486;2023-02-28T10:09:01;29.73;;;7.32;;
24030;SDS011;12240;51.142;22.486;2023-02-28T10:11:42;36.50;;;8.23;;
24030;SDS011;12240;51.142;22.486;2023-02-28T10:14:18;26.55;;;6.53;;
24030;SDS011;12240;51.142;22.486;2023-02-28T10:16:52;39.05;;;8.35;;
24030;SDS011;12240;51.142;22.486;2023-02-28T10:19:39;36.42;;;8.07;;
24030;SDS011;12240;51.142;22.486;2023-02-28T10:22:53;33.30;;;8.02;;
24030;SDS011;12240;51.142;22.486;2023-02-28T10:25:36;27.33;;;6.43;;
24030;SDS011;12240;51.142;22.486;2023-02-28T10:28:10;25.20;;;7.07;;
24030;SDS011;12240;51.142;22.486;2023-02-28T10:30:50;36.83;;;8.88;;
24030;SDS011;12240;51.142;22.486;2023-02-28T10:33:25;27.08;;;7.60;;
24030;SDS011;12240;51.142;22.486;2023-02-28T10:36:04;30.70;;;8.95;;
24030;SDS011;12240;51.142;22.486;2023-02-28T10:38:37;27.52;;;8.10;;
24030;SDS011;12240;51.142;22.486;2023-02-28T10:41:14;32.85;;;8.45;;
24030;SDS011;12240;51.142;22.486;2023-02-28T10:46:50;48.25;;;10.77;;
24030;SDS011;12240;51.142;22.486;2023-02-28T10:51:57;41.90;;;9.00;;
24030;SDS011;12240;51.142;22.486;2023-02-28T10:54:29;32.55;;;8.43;;
24030;SDS011;12240;51.142;22.486;2023-02-28T10:57:16;31.33;;;7.63;;
24030;SDS011;12240;51.142;22.486;2023-02-28T10:59:51;42.42;;;10.10;;
24030;SDS011;12240;51.142;22.486;2023-02-28T11:02:36;30.33;;;7.60;;
24030;SDS011;12240;51.142;22.486;2023-02-28T11:05:24;34.42;;;8.90;;
24030;SDS011;12240;51.142;22.486;2023-02-28T11:08:12;36.88;;;10.00;;
24030;SDS011;12240;51.142;22.486;2023-02-28T11:10:54;41.20;;;9.75;;
24030;SDS011;12240;51.142;22.486;2023-02-28T11:13:27;33.95;;;8.70;;
24030;SDS011;12240;51.142;22.486;2023-02-28T11:16:07;34.85;;;9.05;;
24030;SDS011;12240;51.142;22.486;2023-02-28T11:18:53;45.17;;;10.18;;
24030;SDS011;12240;51.142;22.486;2023-02-28T11:21:30;31.85;;;8.48;;
24030;SDS011;12240;51.142;22.486;2023-02-28T11:26:58;35.97;;;9.40;;
24030;SDS011;12240;51.142;22.486;2023-02-28T11:29:28;30.00;;;8.52;;
24030;SDS011;12240;51.142;22.486;2023-02-28T11:34:46;45.95;;;10.50;;
24030;SDS011;12240;51.142;22.486;2023-02-28T11:37:30;33.90;;;9.48;;
24030;SDS011;12240;51.142;22.486;2023-02-28T11:39:59;35.00;;;9.70;;
24030;SDS011;12240;51.142;22.486;2023-02-28T11:42:35;33.33;;;9.02;;
24030;SDS011;12240;51.142;22.486;2023-02-28T11:48:18;36.78;;;10.50;;
24030;SDS011;12240;51.142;22.486;2023-02-28T11:51:21;36.60;;;9.88;;
24030;SDS011;12240;51.142;22.486;2023-02-28T11:54:06;32.50;;;8.88;;
24030;SDS011;12240;51.142;22.486;2023-02-28T11:57:41;36.58;;;9.43;;
24030;SDS011;12240;51.142;22.486;2023-02-28T12:05:17;38.58;;;10.70;;
24030;SDS011;12240;51.142;22.486;2023-02-28T12:08:11;32.30;;;9.48;;
24030;SDS011;12240;51.142;22.486;2023-02-28T12:14:29;41.03;;;11.73;;
24030;SDS011;12240;51.142;22.486;2023-02-28T12:26:16;43.70;;;11.25;;
24030;SDS011;12240;51.142;22.486;2023-02-28T12:29:13;49.88;;;11.05;;
24030;SDS011;12240;51.142;22.486;2023-02-28T12:31:49;54.00;;;10.75;;
24030;SDS011;12240;51.142;22.486;2023-02-28T12:34:21;45.15;;;10.75;;
24030;SDS011;12240;51.142;22.486;2023-02-28T12:36:55;40.63;;;10.48;;
24030;SDS011;12240;51.142;22.486;2023-02-28T12:39:29;42.22;;;10.43;;
24030;SDS011;12240;51.142;22.486;2023-02-28T12:44:59;57.75;;;11.65;;
24030;SDS011;12240;51.142;22.486;2023-02-28T12:47:38;52.85;;;13.40;;
24030;SDS011;12240;51.142;22.486;2023-02-28T12:50:10;45.08;;;11.85;;
24030;SDS011;12240;51.142;22.486;2023-02-28T12:52:41;47.25;;;11.38;;
24030;SDS011;12240;51.142;22.486;2023-02-28T12:55:27;53.10;;;10.48;;
24030;SDS011;12240;51.142;22.486;2023-02-28T12:58:31;62.08;;;11.50;;
24030;SDS011;12240;51.142;22.486;2023-02-28T13:10:11;57.60;;;11.10;;
24030;SDS011;12240;51.142;22.486;2023-02-28T13:12:47;69.28;;;12.23;;
24030;SDS011;12240;51.142;22.486;2023-02-28T13:15:25;44.92;;;10.68;;
24030;SDS011;12240;51.142;22.486;2023-02-28T13:18:00;54.42;;;10.80;;
24030;SDS011;12240;51.142;22.486;2023-02-28T13:20:29;59.00;;;10.82;;
24030;SDS011;12240;51.142;22.486;2023-02-28T13:26:07;57.67;;;11.30;;
24030;SDS011;12240;51.142;22.486;2023-02-28T13:31:21;65.05;;;12.52;;
24030;SDS011;12240;51.142;22.486;2023-02-28T13:36:23;46.83;;;10.55;;
24030;SDS011;12240;51.142;22.486;2023-02-28T13:39:11;62.03;;;12.88;;
24030;SDS011;12240;51.142;22.486;2023-02-28T13:47:30;53.20;;;11.32;;
24030;SDS011;12240;51.142;22.486;2023-02-28T13:58:41;43.85;;;9.82;;
24030;SDS011;12240;51.142;22.486;2023-02-28T14:07:18;51.58;;;11.50;;
24030;SDS011;12240;51.142;22.486;2023-02-28T14:09:56;63.38;;;12.30;;
24030;SDS011;12240;51.142;22.486;2023-02-28T14:18:36;43.95;;;10.32;;
24030;SDS011;12240;51.142;22.486;2023-02-28T14:21:22;53.28;;;11.07;;
24030;SDS011;12240;51.142;22.486;2023-02-28T14:33:20;46.53;;;10.48;;
24030;SDS011;12240;51.142;22.486;2023-02-28T14:36:14;71.38;;;13.43;;
24030;SDS011;12240;51.142;22.486;2023-02-28T14:39:06;48.47;;;11.20;;
24030;SDS011;12240;51.142;22.486;2023-02-28T14:41:43;60.90;;;11.60;;
24030;SDS011;12240;51.142;22.486;2023-02-28T14:44:13;46.72;;;10.48;;
24030;SDS011;12240;51.142;22.486;2023-02-28T14:46:52;53.92;;;11.85;;
24030;SDS011;12240;51.142;22.486;2023-02-28T14:49:37;41.67;;;10.82;;
24030;SDS011;12240;51.142;22.486;2023-02-28T14:52:15;57.67;;;11.65;;
24030;SDS011;12240;51.142;22.486;2023-02-28T14:54:55;66.68;;;12.43;;
24030;SDS011;12240;51.142;22.486;2023-02-28T14:57:50;59.10;;;11.68;;
24030;SDS011;12240;51.142;22.486;2023-02-28T15:00:28;41.20;;;10.70;;
24030;SDS011;12240;51.142;22.486;2023-02-28T15:02:59;44.95;;;11.20;;
24030;SDS011;12240;51.142;22.486;2023-02-28T15:05:30;58.33;;;12.48;;
24030;SDS011;12240;51.142;22.486;2023-02-28T15:08:11;55.10;;;12.75;;
24030;SDS011;12240;51.142;22.486;2023-02-28T15:10:44;62.22;;;12.27;;
24030;SDS011;12240;51.142;22.486;2023-02-28T15:13:44;54.50;;;11.00;;
24030;SDS011;12240;51.142;22.486;2023-02-28T15:16:19;53.58;;;11.20;;
24030;SDS011;12240;51.142;22.486;2023-02-28T15:19:23;55.33;;;12.00;;
24030;SDS011;12240;51.142;22.486;2023-02-28T15:21:58;50.50;;;11.95;;
24030;SDS011;12240;51.142;22.486;2023-02-28T15:27:31;52.03;;;12.02;;
24030;SDS011;12240;51.142;22.486;2023-02-28T15:30:07;53.80;;;12.45;;
24030;SDS011;12240;51.142;22.486;2023-02-28T15:33:05;70.85;;;14.85;;
24030;SDS011;12240;51.142;22.486;2023-02-28T15:35:49;65.88;;;13.45;;
24030;SDS011;12240;51.142;22.486;2023-02-28T15:38:25;51.65;;;11.35;;
24030;SDS011;12240;51.142;22.486;2023-02-28T15:40:57;63.78;;;13.82;;
24030;SDS011;12240;51.142;22.486;2023-02-28T15:43:30;39.97;;;12.23;;
24030;SDS011;12240;51.142;22.486;2023-02-28T15:46:07;53.25;;;12.95;;
24030;SDS011;12240;51.142;22.486;2023-02-28T15:48:52;49.95;;;11.82;;
24030;SDS011;12240;51.142;22.486;2023-02-28T15:51:24;50.95;;;11.32;;
24030;SDS011;12240;51.142;22.486;2023-02-28T15:54:07;54.10;;;11.27;;
24030;SDS011;12240;51.142;22.486;2023-02-28T15:56:47;62.10;;;11.98;;
24030;SDS011;12240;51.142;22.486;2023-02-28T15:59:27;55.20;;;12.05;;
24030;SDS011;12240;51.142;22.486;2023-02-28T16:05:00;78.97;;;15.05;;
24030;SDS011;12240;51.142;22.486;2023-02-28T16:07:36;53.40;;;12.30;;
24030;SDS011;12240;51.142;22.486;2023-02-28T16:10:12;63.78;;;13.95;;
24030;SDS011;12240;51.142;22.486;2023-02-28T16:12:43;81.03;;;14.75;;
24030;SDS011;12240;51.142;22.486;2023-02-28T16:15:21;58.92;;;13.18;;
24030;SDS011;12240;51.142;22.486;2023-02-28T16:17:56;76.00;;;14.68;;
24030;SDS011;12240;51.142;22.486;2023-02-28T16:20:26;64.85;;;14.02;;
24030;SDS011;12240;51.142;22.486;2023-02-28T16:22:58;77.38;;;15.23;;
24030;SDS011;12240;51.142;22.486;2023-02-28T16:25:34;66.28;;;13.95;;
24030;SDS011;12240;51.142;22.486;2023-02-28T16:28:08;73.65;;;16.40;;
24030;SDS011;12240;51.142;22.486;2023-02-28T16:30:52;89.43;;;19.27;;
24030;SDS011;12240;51.142;22.486;2023-02-28T16:33:21;85.32;;;18.60;;
24030;SDS011;12240;51.142;22.486;2023-02-28T16:35:49;103.55;;;19.67;;
24030;SDS011;12240;51.142;22.486;2023-02-28T16:38:18;94.43;;;20.15;;
24030;SDS011;12240;51.142;22.486;2023-02-28T16:40:46;114.07;;;21.63;;
24030;SDS011;12240;51.142;22.486;2023-02-28T16:43:18;85.38;;;18.38;;
24030;SDS011;12240;51.142;22.486;2023-02-28T16:45:56;93.47;;;18.88;;
24030;SDS011;12240;51.142;22.486;2023-02-28T16:48:27;90.82;;;17.38;;
24030;SDS011;12240;51.142;22.486;2023-02-28T16:50:57;57.58;;;14.80;;
24030;SDS011;12240;51.142;22.486;2023-02-28T16:53:26;62.15;;;15.82;;
24030;SDS011;12240;51.142;22.486;2023-02-28T16:55:53;95.07;;;17.52;;
24030;SDS011;12240;51.142;22.486;2023-02-28T16:58:22;66.50;;;15.55;;
24030;SDS011;12240;51.142;22.486;2023-02-28T17:00:52;85.80;;;17.48;;
24030;SDS011;12240;51.142;22.486;2023-02-28T17:03:24;66.93;;;16.33;;
24030;SDS011;12240;51.142;22.486;2023-02-28T17:06:00;62.60;;;15.45;;
24030;SDS011;12240;51.142;22.486;2023-02-28T17:08:29;59.22;;;15.57;;
24030;SDS011;12240;51.142;22.486;2023-02-28T17:10:59;68.78;;;16.60;;
24030;SDS011;12240;51.142;22.486;2023-02-28T17:13:31;63.08;;;16.48;;